Map

Track Data

SID SEASON NUMBER BASIN SUBBASIN NAME ISO_TIME NATURE LAT LON WMO_WIND WMO_PRES WMO_AGENCY TRACK_TYPE DIST2LAND LANDFALL IFLAG USA_AGENCY USA_ATCF_ID USA_LAT USA_LON USA_RECORD USA_STATUS USA_WIND USA_PRES USA_SSHS USA_R34_NE USA_R34_SE USA_R34_SW USA_R34_NW USA_R50_NE USA_R50_SE USA_R50_SW USA_R50_NW USA_R64_NE USA_R64_SE USA_R64_SW USA_R64_NW USA_POCI USA_ROCI USA_RMW USA_EYE TOKYO_LAT TOKYO_LON TOKYO_GRADE TOKYO_WIND TOKYO_PRES TOKYO_R50_DIR TOKYO_R50_LONG TOKYO_R50_SHORT TOKYO_R30_DIR TOKYO_R30_LONG TOKYO_R30_SHORT TOKYO_LAND CMA_LAT CMA_LON CMA_CAT CMA_WIND CMA_PRES HKO_LAT HKO_LON HKO_CAT HKO_WIND HKO_PRES NEWDELHI_LAT NEWDELHI_LON NEWDELHI_GRADE NEWDELHI_WIND NEWDELHI_PRES NEWDELHI_CI NEWDELHI_DP NEWDELHI_POCI REUNION_LAT REUNION_LON REUNION_TYPE REUNION_WIND REUNION_PRES REUNION_TNUM REUNION_CI REUNION_RMW REUNION_R34_NE REUNION_R34_SE REUNION_R34_SW REUNION_R34_NW REUNION_R50_NE REUNION_R50_SE REUNION_R50_SW REUNION_R50_NW REUNION_R64_NE REUNION_R64_SE REUNION_R64_SW REUNION_R64_NW BOM_LAT BOM_LON BOM_TYPE BOM_WIND BOM_PRES BOM_TNUM BOM_CI BOM_RMW BOM_R34_NE BOM_R34_SE BOM_R34_SW BOM_R34_NW BOM_R50_NE BOM_R50_SE BOM_R50_SW BOM_R50_NW BOM_R64_NE BOM_R64_SE BOM_R64_SW BOM_R64_NW BOM_ROCI BOM_POCI BOM_EYE BOM_POS_METHOD BOM_PRES_METHOD NADI_LAT NADI_LON NADI_CAT NADI_WIND NADI_PRES WELLINGTON_LAT WELLINGTON_LON WELLINGTON_WIND WELLINGTON_PRES DS824_LAT DS824_LON DS824_STAGE DS824_WIND DS824_PRES TD9636_LAT TD9636_LON TD9636_STAGE TD9636_WIND TD9636_PRES TD9635_LAT TD9635_LON TD9635_WIND TD9635_PRES TD9635_ROCI NEUMANN_LAT NEUMANN_LON NEUMANN_CLASS NEUMANN_WIND NEUMANN_PRES MLC_LAT MLC_LON MLC_CLASS MLC_WIND MLC_PRES USA_GUST BOM_GUST BOM_GUST_PER REUNION_GUST REUNION_GUST_PER USA_SEAHGT USA_SEARAD_NE USA_SEARAD_SE USA_SEARAD_SW USA_SEARAD_NW STORM_SPEED STORM_DIR
2008253N29150 2008 64 WP MM NOT_NAMED 2008-09-09 00:00:00 NR 28.7000 149.500 main 1121 1062 O_____________ jtwc_wp WP162008 28.7000 149.500 DB 15 1010 -3 11 331
2008253N29150 2008 64 WP MM NOT_NAMED 2008-09-09 03:00:00 NR 29.1953 149.183 main 1062 1010 P_____________ WP162008 29.1953 149.183 DB 15 1010 -3 10 330
2008253N29150 2008 64 WP MM NOT_NAMED 2008-09-09 06:00:00 NR 29.6000 148.900 main 1010 980 O_____________ jtwc_wp WP162008 29.6000 148.900 DB 15 1010 -3 8 325
2008253N29150 2008 64 WP MM NOT_NAMED 2008-09-09 09:00:00 NR 29.8522 148.665 main 972 944 P_____________ WP162008 29.8522 148.665 DB 17 1008 -3 6 313
2008253N29150 2008 64 WP MM NOT_NAMED 2008-09-09 12:00:00 NR 30.0000 148.400 main 944 916 O_____________ jtwc_wp WP162008 30.0000 148.400 DB 20 1007 -3 6 296
2008253N29150 2008 64 WP MM NOT_NAMED 2008-09-09 15:00:00 NR 30.1149 148.037 main 909 873 P_____________ WP162008 30.1149 148.037 DB 25 1003 -3 7 286
2008253N29150 2008 64 WP MM NOT_NAMED 2008-09-09 18:00:00 TS 30.2000 147.600 main 873 830 O_____________ jtwc_wp WP162008 30.2000 147.600 TD 30 1000 -1 8 282
2008253N29150 2008 64 WP MM NOT_NAMED 2008-09-09 21:00:00 TS 30.2774 147.122 main 830 787 P_____________ WP162008 30.2774 147.122 TD 32 998 -1 9 283
2008253N29150 2008 64 WP MM NOT_NAMED 2008-09-10 00:00:00 TS 30.4000 146.600 main 787 738 O_____________ jtwc_wp WP162008 30.4000 146.600 TS 35 996 0 1008 120 25 10 292
2008253N29150 2008 64 WP MM NOT_NAMED 2008-09-10 03:00:00 TS 30.6499 146.058 main 738 674 P_____________ WP162008 30.6499 146.058 TS 35 996 0 1008 120 25 11 298
2008253N29150 2008 64 WP MM NOT_NAMED 2008-09-10 06:00:00 TS 30.9000 145.500 main 674 634 O_____________ jtwc_wp WP162008 30.9000 145.500 TS 35 996 0 1008 120 25 10 291
2008253N29150 2008 64 WP MM NOT_NAMED 2008-09-10 09:00:00 TS 31.0073 144.949 main 627 589 P_____________ WP162008 31.0073 144.949 TS 35 996 0 1008 120 25 10 282
2008253N29150 2008 64 WP MM NOT_NAMED 2008-09-10 12:00:00 TS 31.1000 144.400 main 589 551 O_____________ jtwc_wp WP162008 31.1000 144.400 TS 35 996 0 1008 120 25 10 284
2008253N29150 2008 64 WP MM NOT_NAMED 2008-09-10 15:00:00 TS 31.2400 143.834 main 546 492 P_____________ WP162008 31.2400 143.834 TS 35 996 0 1008 137 27 10 293
2008253N29150 2008 64 WP MM NOT_NAMED 2008-09-10 18:00:00 TS 31.5000 143.300 main 492 428 O_____________ jtwc_wp WP162008 31.5000 143.300 TS 35 996 0 1008 155 30 11 308
2008253N29150 2008 64 WP MM NOT_NAMED 2008-09-10 21:00:00 TS 31.9325 142.798 main 428 352 P_____________ WP162008 31.9325 142.798 TS 35 996 0 1008 155 32 13 323
2008253N29150 2008 64 WP MM NOT_NAMED 2008-09-11 00:00:00 TS 32.5000 142.400 main 352 286 O_____________ jtwc_wp WP162008 32.5000 142.400 TS 35 996 0 1008 155 35 13 335
2008253N29150 2008 64 WP MM NOT_NAMED 2008-09-11 03:00:00 TS 33.1198 142.147 main 281 213 P_____________ WP162008 33.1198 142.147 TS 32 998 -1 1008 152 40 13 345
2008253N29150 2008 64 WP MM NOT_NAMED 2008-09-11 06:00:00 TS 33.8000 142.000 main 213 163 O_____________ jtwc_wp WP162008 33.8000 142.000 TD 30 1000 -1 1008 150 45 14 350
2008253N29150 2008 64 WP MM NOT_NAMED 2008-09-11 09:00:00 TS 34.4850 141.870 main 157 98 P_____________ WP162008 34.4850 141.870 TD 30 1000 -1 1008 150 45 14 353
2008253N29150 2008 64 WP MM NOT_NAMED 2008-09-11 12:00:00 TS 35.2000 141.800 main 98 72 O_____________ jtwc_wp WP162008 35.2000 141.800 TD 30 1000 -1 1008 150 45 15 355
2008253N29150 2008 64 WP MM NOT_NAMED 2008-09-11 15:00:00 TS 35.9273 141.727 main 75 75 P_____________ WP162008 35.9273 141.727 TD 30 1000 -1 15 0
2008253N29150 2008 64 WP MM NOT_NAMED 2008-09-11 18:00:00 TS 36.7000 141.800 main 78 71 O_____________ jtwc_wp WP162008 36.7000 141.800 TD 30 1000 -1 16 11
2008253N29150 2008 64 WP MM NOT_NAMED 2008-09-11 21:00:00 TS 37.5198 142.103 main 96 77 P_____________ WP162008 37.5198 142.103 TD 30 1000 -1 18 20
2008253N29150 2008 64 WP MM NOT_NAMED 2008-09-12 00:00:00 ET 38.4000 142.600 main 92 88 O_____________ jtwc_wp WP162008 38.4000 142.600 EX 30 1000 -4 20 26
2008253N29150 2008 64 WP MM NOT_NAMED 2008-09-12 03:00:00 ET 39.3359 143.216 main 96 96 P_____________ WP162008 39.3359 143.216 EX 30 1000 -4 22 28
2008253N29150 2008 64 WP MM NOT_NAMED 2008-09-12 06:00:00 ET 40.3000 143.900 main 170 O_____________ jtwc_wp WP162008 40.3000 143.900 EX 30 1000 -4 22 28

Digital Typhoon Data and Search

About IBTrACS Database

This database is a web-friendly format of International Best Track Archive for Climate Stewardship (IBTrACS), a global best track data archive curated by NOAA dating back to 1842.

Updated: 2021-10-21